Flugplatz Attendorn-Finnentrop (EDKU)

Hier findest Du alle Informationen zum Flugplatz Attendorn-Finnentrop (EDKU).

Informationen für Piloten zum Flugplatz Attendorn-Finnentrop

Hier findest Du alle relevanten Informationen, die Du als Pilot benötigst, um Attendorn-Finnentrop anzufliegen.

Flugplatz: Attendorn-Finnentrop ICAO-Code: EDKU
Frequenz Turm: 121,400 Mhz GAFOR Gebiet: 36
Frequenz Ground: 121,400 Mhz Mogas: ja
Platzrunde: NW 2200 ft Landegebühr: -
Platzhöhe: 1.040 ft Sunrise: 03:11 Uhr UTC
Pisten: 03/21 - 450 m x 30 m, GRAS Sunset: 19:49 Uhr UTC

Mitglieder, die in Attendorn-Finnentrop fliegen

Flugwetter am Flugplatz Attendorn-Finnentrop

Die METAR Information stammen aus EDLW (47.08 km entfernt).

METAR Code:
2024/06/06 12:20
EDLW 061220Z 24007KT 200V290 CAVOK 19/06 Q1016

Flugschulen am Flugplatz Attendorn-Finnentrop

Am Flugplatz Attendorn-Finnentrop gibt es leider keine Flugschule.

Benachbarte Flugplätze und Flugschulen

Es gibt 21 weitere Flugplätze in einem Umkreis von 50 km um den Flugplatz Attendorn-Finnentrop.

Jetzt anmelden

Passwort vergessen

Umfrage Archiv

Wie häufig haltet Ihr die Halbkreisflugregel ein?

Eher häufig!
36 %
Immer!
30.7 %
Hin und wieder!
16.7 %
Nie!
9.5 %
Eher selten!
7.2 %
Stimmen: 264 | Diskussion
Anzeige: Roland Aircraft
Statistik Alle Mitglieder

Aktuell sind 30 Besucher online, davon 2 Mitglieder und 28 Gäste.


Mitglieder online:
b3nn0  Sev11 

Anzeige: EasyVFR